»·PEaware :: N6182G KDEN-KEGE

N6182G :: KDEN-KEGE

FLIGHT INFORMATION

Flight Status: Arrived
Operator: Privately registered:
United States
More flights under this callsign
Pilot: Paul A. (20189)
Aircraft: CESSNA 182 SKYLANE
(C182)
More flights by this aircraft type
Origin: KDEN Denver Intl
United States
Destination: KEGE Eagle Co Regl
United States
More flights between these airports :: More routes between these airports
Route: +
File this flight plan on PilotEdge
Remarks:
Altitude:
(Current/Filed)
12,500ft
Speed:
(Current/Filed)
125kts
Departed: 10-Oct-18 05:46 PM
Arrived: 10-Oct-18 06:48 PM
Distance/Time
Traveled:
104nm/1:02
Distance/Time
To Go:
Arrived

Flight Plot

Page will automatically refresh every two minutes.

Flight plan parsing failed; only flown route is shown


Map Options




Map Legend


Flown Route
Filed Route
Departure Airport
Arrival Airport
Navaid (VOR, NDB)
Fix

Horizontal Profiles

Position Reports

Time Latitude Longitude Heading Altitude Ground
Speed
10-Oct-18 17:25 39.840014 -104.665398 0 5434ft 0kts
10-Oct-18 17:26 39.840014 -104.665398 0 5434ft 0kts
10-Oct-18 17:27 39.840014 -104.665398 0 5434ft 0kts
10-Oct-18 17:28 39.840014 -104.665398 0 5434ft 0kts
10-Oct-18 17:29 39.840014 -104.665398 359 5434ft 0kts
10-Oct-18 17:30 39.840016 -104.665398 0 5434ft 0kts
10-Oct-18 17:31 39.840017 -104.665398 359 5434ft 0kts
10-Oct-18 17:32 39.840018 -104.665398 0 5434ft 0kts
10-Oct-18 17:33 39.840019 -104.665398 0 5434ft 0kts
10-Oct-18 17:34 39.840019 -104.665398 0 5434ft 0kts
10-Oct-18 17:35 39.840021 -104.665398 0 5434ft 0kts
10-Oct-18 17:36 39.840021 -104.665398 359 5434ft 0kts
10-Oct-18 17:37 39.840022 -104.665398 0 5434ft 0kts
10-Oct-18 17:38 39.840023 -104.665398 0 5434ft 0kts
10-Oct-18 17:39 39.840046 -104.665480 205 5434ft 1kts
10-Oct-18 17:40 39.839770 -104.664339 141 5434ft 0kts
10-Oct-18 17:41 39.839405 -104.664196 176 5434ft 0kts
10-Oct-18 17:42 39.839002 -104.663951 60 5434ft 5kts
10-Oct-18 17:43 39.839059 -104.663206 122 5434ft 11kts
10-Oct-18 17:44 39.836341 -104.662581 179 5434ft 14kts
10-Oct-18 17:45 39.833260 -104.662591 179 5434ft 8kts
10-Oct-18 17:46 39.829555 -104.662685 180 5434ft 16kts
10-Oct-18 17:47 39.828414 -104.662056 92 5434ft 0kts
10-Oct-18 17:48 39.838113 -104.661037 354 5656ft 72kts
10-Oct-18 17:49 39.865189 -104.664182 359 6670ft 90kts
10-Oct-18 17:50 39.889744 -104.672916 307 7583ft 99kts
10-Oct-18 17:51 39.896992 -104.700931 279 8330ft 98kts
10-Oct-18 17:52 39.900849 -104.740918 278 9348ft 91kts
10-Oct-18 17:53 39.902530 -104.766604 274 10076ft 78kts
10-Oct-18 17:54 39.903712 -104.789547 268 10905ft 47kts
10-Oct-18 17:55 39.905591 -104.816455 275 10906ft 106kts
10-Oct-18 17:56 39.908229 -104.853397 274 11367ft 97kts
10-Oct-18 17:57 39.910491 -104.887510 274 11796ft 92kts
10-Oct-18 17:58 39.912656 -104.920306 273 12187ft 89kts
10-Oct-18 17:59 39.914770 -104.952563 274 12524ft 92kts
10-Oct-18 18:00 39.917164 -104.988925 274 12542ft 107kts
10-Oct-18 18:01 39.919784 -105.029024 274 12507ft 112kts
10-Oct-18 18:02 39.922398 -105.069387 274 12495ft 112kts
10-Oct-18 18:03 39.925039 -105.110476 274 12484ft 114kts
10-Oct-18 18:04 39.927671 -105.151642 273 12485ft 113kts
10-Oct-18 18:05 39.930290 -105.192853 273 12490ft 114kts
10-Oct-18 18:06 39.932895 -105.234150 273 12495ft 114kts
10-Oct-18 18:07 39.935511 -105.275714 273 12487ft 115kts
10-Oct-18 18:08 39.938085 -105.317266 273 12487ft 114kts
10-Oct-18 18:09 39.941173 -105.366014 273 12482ft 116kts
10-Oct-18 18:10 39.943281 -105.400976 273 12485ft 116kts
10-Oct-18 18:11 39.945851 -105.442892 273 12483ft 116kts
10-Oct-18 18:12 39.948452 -105.485012 273 12482ft 116kts
10-Oct-18 18:13 39.950985 -105.526723 273 12504ft 115kts
10-Oct-18 18:14 39.953508 -105.568611 273 12503ft 116kts
10-Oct-18 18:15 39.958225 -105.610400 285 12501ft 118kts
10-Oct-18 18:16 39.968367 -105.651187 279 12498ft 118kts
10-Oct-18 18:17 39.974917 -105.693863 275 12490ft 127kts
10-Oct-18 18:18 39.978007 -105.740003 272 12489ft 123kts
10-Oct-18 18:19 39.980329 -105.783719 272 12499ft 118kts
10-Oct-18 18:20 39.982632 -105.826564 272 12500ft 118kts
10-Oct-18 18:21 39.984932 -105.869387 272 12501ft 118kts
10-Oct-18 18:22 39.987319 -105.919166 265 12502ft 117kts
10-Oct-18 18:23 39.980230 -105.953704 255 12505ft 119kts
10-Oct-18 18:24 39.970781 -105.995165 255 12501ft 119kts
10-Oct-18 18:25 39.959748 -106.043565 255 12501ft 119kts
10-Oct-18 18:26 39.945958 -106.074773 236 12502ft 122kts
10-Oct-18 18:27 39.924405 -106.109025 236 12499ft 122kts
10-Oct-18 18:28 39.902971 -106.143605 235 12503ft 122kts
10-Oct-18 18:29 39.882528 -106.178855 244 12500ft 120kts
10-Oct-18 18:30 39.865283 -106.216634 242 12510ft 123kts
10-Oct-18 18:31 39.847923 -106.254493 243 12504ft 121kts
10-Oct-18 18:32 39.830692 -106.292174 243 12508ft 120kts
10-Oct-18 18:33 39.813523 -106.329457 243 12516ft 120kts
10-Oct-18 18:34 39.800548 -106.369476 247 12516ft 121kts
10-Oct-18 18:35 39.782321 -106.409060 232 12523ft 132kts
10-Oct-18 18:36 39.756846 -106.442215 230 12506ft 126kts
10-Oct-18 18:37 39.731934 -106.474133 230 12508ft 124kts
10-Oct-18 18:38 39.707242 -106.505746 230 12509ft 124kts
10-Oct-18 18:39 39.695294 -106.545424 258 12509ft 120kts
10-Oct-18 18:40 39.688121 -106.588720 258 12368ft 125kts
10-Oct-18 18:41 39.680328 -106.632168 259 12204ft 126kts
10-Oct-18 18:42 39.674173 -106.676029 259 12137ft 125kts
10-Oct-18 18:43 39.667911 -106.722078 259 11410ft 101kts
10-Oct-18 18:44 39.663337 -106.752312 256 10852ft 88kts
10-Oct-18 18:45 39.657446 -106.784740 258 9772ft 104kts
10-Oct-18 18:46 39.652503 -106.822188 264 8232ft 97kts
10-Oct-18 18:47 39.649396 -106.854280 260 7323ft 79kts
10-Oct-18 18:48 39.646626 -106.879734 259 6912ft 69kts
10-Oct-18 18:49 39.644105 -106.903395 259 6549ft 62kts
10-Oct-18 18:50 39.642868 -106.915337 278 6518ft 12kts
10-Oct-18 18:51 39.643972 -106.915326 21 6518ft 6kts
10-Oct-18 18:52 39.644925 -106.910909 96 6518ft 10kts

Navigation Log

Ident Type
Flight plan parsing failed, navigation log unavailable